Time;durP1;ratioP1;P1;durP2;ratioP2;P2;SDS_P1;SDS_P2;PMS_P1;PMS_P2;Temp;Humidity;BMP_temperature;BMP_pressure;BME280_temperature;BME280_humidity;BME280_pressure;Samples;Min_cycle;Max_cycle;Signal;HPM_P1;HPM_P2
2021/10/06 00:01:46;;;;;;;1.30;1.20;;;;;;;29.68;24.42;98132.06;5084539;28;20033;-85
2021/10/06 00:04:12;;;;;;;3.20;2.05;;;;;;;30.02;23.95;98128.94;5077182;28;20458;-85
2021/10/06 00:06:39;;;;;;;1.88;1.27;;;;;;;30.17;23.71;98132.72;5080269;28;20043;-85
2021/10/06 00:09:06;;;;;;;2.83;2.05;;;;;;;29.69;24.38;98119.47;5080383;28;20055;-86
2021/10/06 00:11:32;;;;;;;2.97;2.00;;;;;;;29.25;25.00;98124.63;5080354;28;20085;-86
2021/10/06 00:13:58;;;;;;;2.75;1.63;;;;;;;28.30;26.23;98119.97;5085202;28;20056;-86
2021/10/06 00:16:25;;;;;;;1.45;1.35;;;;;;;29.61;24.29;98123.91;5084731;28;20032;-85
2021/10/06 00:18:52;;;;;;;7.25;1.85;;;;;;;27.87;26.73;98112.25;5089018;28;20028;-85
2021/10/06 00:21:18;;;;;;;1.73;1.40;;;;;;;29.23;24.89;98110.16;5088345;28;20020;-86
2021/10/06 00:23:45;;;;;;;3.85;1.52;;;;;;;28.77;25.06;98106.41;5081236;28;20047;-85
2021/10/06 00:26:11;;;;;;;1.70;1.48;;;;;;;28.31;26.41;98101.78;5087246;28;20028;-86
2021/10/06 00:28:37;;;;;;;1.45;1.20;;;;;;;29.47;24.43;98107.53;5084997;28;20124;-86
2021/10/06 00:31:03;;;;;;;1.98;1.20;;;;;;;29.96;23.86;98105.34;5084329;28;20028;-86
2021/10/06 00:33:29;;;;;;;1.77;1.58;;;;;;;29.71;24.29;98105.66;5085295;28;20693;-86
2021/10/06 00:35:56;;;;;;;13.80;2.22;;;;;;;29.93;23.93;98107.09;5089123;28;20392;-85
2021/10/06 00:38:23;;;;;;;1.55;1.40;;;;;;;30.35;23.32;98109.25;5088957;28;20037;-85
2021/10/06 00:40:50;;;;;;;1.80;1.02;;;;;;;29.90;24.11;98101.56;5081270;28;20485;-85
2021/10/06 00:43:16;;;;;;;3.70;1.80;;;;;;;30.30;23.44;98107.00;5077725;28;20028;-85
2021/10/06 00:45:42;;;;;;;1.67;1.58;;;;;;;30.13;24.28;98103.75;5079068;28;20036;-85
2021/10/06 00:48:08;;;;;;;5.35;1.67;;;;;;;29.43;24.79;98110.50;5085744;28;20029;-86
2021/10/06 00:50:36;;;;;;;2.60;1.90;;;;;;;28.18;26.55;98115.19;5080776;28;20401;-86
2021/10/06 00:53:03;;;;;;;2.25;1.83;;;;;;;27.86;26.37;98111.50;5081217;28;20043;-86
2021/10/06 00:55:29;;;;;;;2.85;2.13;;;;;;;29.08;25.33;98120.50;5078962;28;20032;-86
2021/10/06 00:57:55;;;;;;;3.35;1.10;;;;;;;30.00;23.51;98118.09;5085526;28;20035;-87
2021/10/06 01:00:21;;;;;;;2.03;1.40;;;;;;;30.76;22.66;98108.44;5087440;28;20050;-86
2021/10/06 01:02:47;;;;;;;1.65;1.52;;;;;;;31.10;22.22;98107.22;5085989;28;20036;-86
2021/10/06 01:05:14;;;;;;;3.67;2.55;;;;;;;29.95;24.62;98121.56;5083715;28;20394;-86
2021/10/06 01:07:40;;;;;;;4.05;1.90;;;;;;;30.23;24.26;98124.34;5085156;28;20401;-86
2021/10/06 01:10:08;;;;;;;2.60;2.00;;;;;;;28.87;25.93;98110.81;5081835;28;20081;-86
2021/10/06 01:12:36;;;;;;;3.65;2.00;;;;;;;28.41;26.75;98103.38;5080172;28;20024;-86
2021/10/06 01:15:05;;;;;;;2.47;2.05;;;;;;;28.67;26.31;98102.75;5081497;28;20032;-86
2021/10/06 01:17:32;;;;;;;1.83;1.20;;;;;;;29.86;24.85;98096.09;5085131;28;20086;-86
2021/10/06 01:19:58;;;;;;;3.85;1.40;;;;;;;30.11;23.85;98097.78;5084952;28;20046;-85
2021/10/06 01:22:24;;;;;;;1.60;1.50;;;;;;;30.50;23.29;98104.47;5078562;28;20037;-85
2021/10/06 01:24:50;;;;;;;2.17;1.73;;;;;;;30.39;23.42;98092.84;5087471;28;20516;-86
2021/10/06 01:27:16;;;;;;;2.22;1.90;;;;;;;30.02;24.01;98090.09;5078823;28;20036;-86
2021/10/06 01:29:42;;;;;;;1.90;1.20;;;;;;;30.27;23.98;98097.41;5074992;28;20029;-85
2021/10/06 01:32:15;;;;;;;2.13;1.58;;;;;;;30.44;23.12;98103.53;5087583;28;20029;-87
2021/10/06 01:34:42;;;;;;;2.85;1.08;;;;;;;30.71;23.20;98094.97;5079869;28;20089;-87
2021/10/06 01:37:08;;;;;;;1.58;1.30;;;;;;;30.70;23.61;98099.84;5088318;28;20110;-87
2021/10/06 01:39:35;;;;;;;1.92;1.73;;;;;;;30.96;22.98;98100.22;5090797;28;20052;-86
2021/10/06 01:42:02;;;;;;;3.65;1.38;;;;;;;31.37;22.40;98101.38;5088503;28;20043;-87
2021/10/06 01:44:28;;;;;;;1.50;0.90;;;;;;;31.59;21.65;98110.38;5082787;28;20413;-87
2021/10/06 01:46:54;;;;;;;1.63;1.10;;;;;;;31.59;21.79;98109.59;5083767;28;20036;-86
2021/10/06 01:49:20;;;;;;;1.50;1.23;;;;;;;30.91;23.12;98112.22;5086042;28;20041;-87
2021/10/06 01:51:46;;;;;;;1.95;1.08;;;;;;;31.30;23.01;98104.56;5089847;28;20406;-86
2021/10/06 01:54:12;;;;;;;6.45;2.50;;;;;;;31.04;22.63;98109.16;5087287;28;20036;-86
2021/10/06 01:56:39;;;;;;;1.73;1.27;;;;;;;30.71;24.16;98124.06;5090004;28;20035;-86
2021/10/06 01:59:05;;;;;;;2.65;1.92;;;;;;;30.60;23.85;98123.00;5084388;28;20113;-86
2021/10/06 02:01:31;;;;;;;3.13;1.33;;;;;;;30.09;25.30;98117.28;5083586;28;20036;-86
2021/10/06 02:03:57;;;;;;;1.15;1.00;;;;;;;30.42;24.94;98112.53;5082872;28;20024;-86
2021/10/06 02:06:23;;;;;;;1.63;1.00;;;;;;;30.61;24.26;98110.41;5087776;28;20036;-86
2021/10/06 02:08:49;;;;;;;3.03;1.13;;;;;;;30.99;23.83;98110.59;5091865;28;20039;-86
2021/10/06 02:11:16;;;;;;;2.35;1.10;;;;;;;30.89;24.61;98113.94;5084787;28;20039;-86
2021/10/06 02:13:42;;;;;;;1.95;1.15;;;;;;;31.17;24.17;98104.03;5085419;28;20032;-85
2021/10/06 02:16:08;;;;;;;2.30;1.67;;;;;;;30.89;24.54;98099.78;5083617;28;20124;-86
2021/10/06 02:18:34;;;;;;;1.65;1.30;;;;;;;29.70;26.31;98106.91;5089908;28;20036;-86
2021/10/06 02:21:00;;;;;;;1.90;1.27;;;;;;;30.21;25.77;98107.81;5081996;28;20029;-87
2021/10/06 02:23:26;;;;;;;4.95;1.75;;;;;;;29.36;27.19;98103.13;5088183;28;20036;-87
2021/10/06 02:25:52;;;;;;;1.75;1.13;;;;;;;30.13;26.06;98109.41;5090663;28;20493;-87
2021/10/06 02:28:18;;;;;;;1.20;1.10;;;;;;;30.85;24.88;98102.75;5083670;28;20089;-87
2021/10/06 02:30:45;;;;;;;0.70;0.70;;;;;;;31.25;24.20;98091.06;5085216;28;20043;-87
2021/10/06 02:33:11;;;;;;;1.45;1.30;;;;;;;30.94;25.11;98087.78;5091257;28;20166;-87
2021/10/06 02:35:37;;;;;;;1.90;1.40;;;;;;;29.99;26.26;98082.53;5091190;28;20047;-87
2021/10/06 02:38:03;;;;;;;1.25;0.80;;;;;;;30.64;25.12;98090.38;5090046;28;20036;-87
2021/10/06 02:40:29;;;;;;;2.22;0.80;;;;;;;31.31;24.15;98083.44;5095579;28;20072;-87
2021/10/06 02:42:55;;;;;;;3.63;1.52;;;;;;;31.01;25.17;98084.59;5084076;28;20032;-87
2021/10/06 02:45:22;;;;;;;1.13;1.02;;;;;;;31.37;24.35;98075.81;5084723;28;20497;-87
2021/10/06 02:47:48;;;;;;;2.10;1.40;;;;;;;31.25;24.83;98080.47;5081962;28;20114;-87
2021/10/06 02:50:22;;;;;;;2.00;1.65;;;;;;;30.19;25.98;98079.19;5083801;28;20044;-87
2021/10/06 02:52:48;;;;;;;2.10;1.30;;;;;;;29.98;26.52;98083.03;5081593;28;20398;-86
2021/10/06 02:55:14;;;;;;;2.55;1.70;;;;;;;30.05;25.75;98079.84;5084354;28;20073;-86
2021/10/06 02:57:40;;;;;;;3.83;1.27;;;;;;;29.52;26.98;98093.56;5086523;28;20028;-86
2021/10/06 03:00:09;;;;;;;2.00;1.13;;;;;;;29.71;26.59;98086.63;5082726;28;20036;-86
2021/10/06 03:02:40;;;;;;;0.85;0.82;;;;;;;30.54;25.24;98088.09;5090595;28;20458;-86
2021/10/06 03:05:08;;;;;;;4.25;1.20;;;;;;;31.05;24.18;98085.97;5084912;28;20028;-86
2021/10/06 03:07:34;;;;;;;2.20;1.80;;;;;;;29.58;26.03;98088.03;5078062;28;20548;-86
2021/10/06 03:10:00;;;;;;;2.78;1.90;;;;;;;29.48;26.18;98087.25;5089576;28;20036;-86
2021/10/06 03:12:26;;;;;;;3.70;1.98;;;;;;;29.83;25.67;98087.75;5086033;28;20480;-86
2021/10/06 03:14:52;;;;;;;2.50;1.40;;;;;;;30.25;25.43;98085.78;5085199;28;20043;-86
2021/10/06 03:17:18;;;;;;;3.05;2.33;;;;;;;29.29;26.93;98075.13;5080190;28;20408;-86
2021/10/06 03:19:44;;;;;;;1.65;0.82;;;;;;;30.14;26.01;98079.03;5074542;28;20040;-86
2021/10/06 03:22:10;;;;;;;1.77;1.08;;;;;;;30.97;24.28;98087.59;5082088;28;20028;-86
2021/10/06 03:24:36;;;;;;;1.10;1.00;;;;;;;31.60;23.46;98088.47;5089403;28;20100;-86
2021/10/06 03:27:02;;;;;;;2.35;1.38;;;;;;;31.89;22.77;98099.88;5075594;28;20032;-86
2021/10/06 03:29:28;;;;;;;1.63;1.13;;;;;;;31.51;23.19;98094.97;5088293;28;20033;-86
2021/10/06 03:31:55;;;;;;;1.02;1.00;;;;;;;31.55;23.83;98094.81;5084398;28;20505;-86
2021/10/06 03:34:21;;;;;;;1.45;1.15;;;;;;;31.81;23.20;98095.88;5080432;28;20024;-86
2021/10/06 03:36:47;;;;;;;4.20;1.58;;;;;;;31.17;24.47;98101.19;5086803;28;20064;-86
2021/10/06 03:39:13;;;;;;;1.77;0.95;;;;;;;31.30;24.38;98099.69;5080477;28;20028;-86
2021/10/06 03:41:39;;;;;;;3.38;1.08;;;;;;;31.62;23.79;98112.25;5085087;28;20028;-86
2021/10/06 03:44:05;;;;;;;1.63;1.05;;;;;;;32.08;22.82;98113.47;5080107;28;20386;-86
2021/10/06 03:46:31;;;;;;;2.47;0.82;;;;;;;32.19;22.74;98107.19;5089898;28;20094;-86
2021/10/06 03:48:57;;;;;;;1.00;1.00;;;;;;;32.53;22.32;98126.44;5080570;28;20481;-86
2021/10/06 03:51:23;;;;;;;0.88;0.77;;;;;;;32.31;23.39;98119.53;5076673;28;20072;-86
2021/10/06 03:53:49;;;;;;;3.00;1.05;;;;;;;32.35;22.90;98123.75;5084575;28;20038;-86
2021/10/06 03:56:15;;;;;;;1.95;1.05;;;;;;;31.83;23.68;98125.34;5088659;28;20039;-86
2021/10/06 03:58:41;;;;;;;1.42;1.33;;;;;;;31.73;24.11;98118.16;5077848;28;20459;-86
2021/10/06 04:01:08;;;;;;;1.67;1.20;;;;;;;31.37;24.34;98135.41;5084271;28;20032;-86
2021/10/06 04:03:34;;;;;;;2.22;1.33;;;;;;;31.57;24.25;98140.53;5080974;28;20032;-86
2021/10/06 04:06:00;;;;;;;1.27;1.00;;;;;;;31.39;24.55;98136.50;5085196;28;20032;-86
2021/10/06 04:08:26;;;;;;;1.08;0.88;;;;;;;31.74;24.03;98142.44;5084647;28;20555;-86
2021/10/06 04:10:52;;;;;;;3.35;1.20;;;;;;;32.07;23.85;98134.59;5083363;28;20043;-86
2021/10/06 04:13:18;;;;;;;1.25;1.15;;;;;;;31.76;24.22;98137.06;5072966;28;20052;-86
2021/10/06 04:15:44;;;;;;;1.73;1.38;;;;;;;31.43;24.63;98136.38;5077678;28;20130;-87
2021/10/06 04:18:10;;;;;;;2.25;1.33;;;;;;;31.33;24.66;98149.00;5083439;28;20440;-86
2021/10/06 04:20:36;;;;;;;1.45;0.90;;;;;;;31.55;24.63;98145.91;5082987;28;20032;-85
2021/10/06 04:23:03;;;;;;;1.13;1.00;;;;;;;31.56;24.84;98148.25;5080896;28;20043;-85
2021/10/06 04:25:29;;;;;;;1.45;1.20;;;;;;;31.62;24.18;98162.56;5076657;28;20401;-86
2021/10/06 04:27:55;;;;;;;4.43;1.08;;;;;;;31.79;23.97;98163.69;5083653;28;20111;-86
2021/10/06 04:30:21;;;;;;;1.58;1.10;;;;;;;31.80;23.96;98165.28;5078281;28;20056;-87
2021/10/06 04:32:47;;;;;;;1.83;1.20;;;;;;;32.11;23.75;98170.56;5076790;28;20028;-86
2021/10/06 04:35:14;;;;;;;1.92;1.25;;;;;;;32.17;23.56;98169.41;5081533;28;20036;-86
2021/10/06 04:37:40;;;;;;;1.98;1.20;;;;;;;32.03;23.84;98167.31;5082240;28;20098;-88
2021/10/06 04:40:08;;;;;;;1.98;1.23;;;;;;;32.12;23.66;98160.75;5083038;28;20608;-85
2021/10/06 04:42:34;;;;;;;2.97;0.90;;;;;;;31.90;24.32;98166.78;5082277;28;20408;-81
2021/10/06 04:45:00;;;;;;;1.15;1.05;;;;;;;31.93;24.23;98166.56;5083056;28;20118;-84
2021/10/06 04:47:27;;;;;;;2.90;0.98;;;;;;;32.01;24.18;98167.81;5080803;28;20035;-83
2021/10/06 04:49:53;;;;;;;0.80;0.80;;;;;;;32.22;23.97;98173.63;5082263;28;20105;-84
2021/10/06 04:52:19;;;;;;;3.63;1.30;;;;;;;31.18;25.26;98182.97;5087084;28;20104;-83
2021/10/06 04:54:45;;;;;;;1.35;1.00;;;;;;;31.45;24.83;98182.06;5081737;28;20519;-84
2021/10/06 04:57:11;;;;;;;1.60;1.10;;;;;;;31.85;24.41;98178.81;5087121;28;20035;-83
2021/10/06 04:59:37;;;;;;;1.25;0.70;;;;;;;32.31;23.58;98170.69;5084509;28;20061;-84
2021/10/06 05:02:03;;;;;;;1.73;0.95;;;;;;;32.59;23.18;98184.19;5088663;28;20040;-84
2021/10/06 05:04:29;;;;;;;5.20;1.23;;;;;;;32.46;23.47;98186.50;5076062;28;20170;-84
2021/10/06 05:06:55;;;;;;;1.70;1.58;;;;;;;31.34;24.93;98191.06;5077670;28;20032;-85
2021/10/06 05:09:21;;;;;;;1.00;0.90;;;;;;;31.31;24.90;98194.91;5086718;28;20054;-85
2021/10/06 05:11:47;;;;;;;2.40;1.20;;;;;;;31.86;24.56;98200.25;5083096;28;20028;-84
2021/10/06 05:14:13;;;;;;;1.17;1.08;;;;;;;31.52;24.92;98186.59;5077778;28;20035;-84
2021/10/06 05:16:39;;;;;;;2.40;1.08;;;;;;;31.65;24.53;98184.31;5084194;28;20039;-84
2021/10/06 05:19:05;;;;;;;1.02;0.90;;;;;;;32.05;23.77;98190.34;5079984;28;20028;-84
2021/10/06 05:21:32;;;;;;;1.20;0.80;;;;;;;32.43;23.44;98189.53;5087650;28;20054;-83
2021/10/06 05:23:58;;;;;;;1.38;1.20;;;;;;;32.28;23.95;98200.88;5079214;28;20091;-83
2021/10/06 05:26:24;;;;;;;1.45;0.90;;;;;;;32.33;23.41;98207.94;5075701;28;20033;-83
2021/10/06 05:28:54;;;;;;;1.83;0.88;;;;;;;32.41;23.62;98197.75;5088029;28;20068;-83
2021/10/06 05:31:21;;;;;;;2.53;0.82;;;;;;;31.71;24.75;98190.91;5072978;28;20390;-83
2021/10/06 05:33:48;;;;;;;0.75;0.60;;;;;;;31.99;24.36;98200.81;5074104;28;20037;-83
2021/10/06 05:36:15;;;;;;;1.63;1.05;;;;;;;32.20;24.10;98196.84;5072863;28;20493;-83
2021/10/06 05:38:42;;;;;;;1.20;1.10;;;;;;;32.01;24.42;98215.31;5072719;28;20082;-83
2021/10/06 05:41:08;;;;;;;0.95;0.88;;;;;;;31.95;24.18;98218.00;5082245;28;20051;-83
2021/10/06 05:43:34;;;;;;;0.68;0.60;;;;;;;32.13;24.01;98205.75;5090794;28;20461;-83
2021/10/06 05:46:00;;;;;;;2.97;1.00;;;;;;;32.16;24.06;98209.69;5072761;28;20090;-83
2021/10/06 05:48:26;;;;;;;2.42;2.13;;;;;;;32.05;24.33;98210.22;5072725;28;20059;-83
2021/10/06 05:50:52;;;;;;;2.15;1.50;;;;;;;31.91;24.88;98216.63;5083110;28;20062;-83
2021/10/06 05:53:18;;;;;;;1.30;1.20;;;;;;;31.48;25.19;98218.00;5092914;28;20551;-83
2021/10/06 05:55:45;;;;;;;1.40;1.00;;;;;;;31.92;24.60;98230.34;5092097;28;20430;-82
2021/10/06 05:58:12;;;;;;;2.92;1.38;;;;;;;32.05;24.60;98230.91;5091051;28;20056;-82
2021/10/06 06:00:38;;;;;;;2.42;1.70;;;;;;;32.31;24.25;98230.38;5072655;28;20037;-83
2021/10/06 06:03:07;;;;;;;4.25;1.45;;;;;;;32.62;23.99;98237.22;5077879;28;20078;-83
2021/10/06 06:05:33;;;;;;;4.05;1.83;;;;;;;32.66;24.09;98234.19;5092661;28;20028;-83
2021/10/06 06:07:59;;;;;;;5.20;3.40;;;;;;;31.91;25.02;98242.19;5091196;28;20362;-83
2021/10/06 06:10:25;;;;;;;5.75;3.22;;;;;;;31.71;25.40;98248.47;5091712;28;20485;-82
2021/10/06 06:12:51;;;;;;;4.40;3.10;;;;;;;31.92;24.94;98258.75;5086249;28;20036;-83
2021/10/06 06:15:17;;;;;;;13.50;6.03;;;;;;;31.54;25.48;98252.97;5087448;28;20089;-83
2021/10/06 06:17:43;;;;;;;12.10;5.70;;;;;;;29.76;27.84;98244.53;5092684;28;20036;-82
2021/10/06 06:20:14;;;;;;;8.38;5.43;;;;;;;29.54;28.66;98249.50;5081001;28;20084;-82
2021/10/06 06:22:41;;;;;;;5.10;2.72;;;;;;;30.56;27.09;98264.09;5092648;28;20034;-83
2021/10/06 06:25:09;;;;;;;3.67;2.22;;;;;;;31.58;25.45;98264.94;5082469;28;20040;-82
2021/10/06 06:27:36;;;;;;;3.97;2.65;;;;;;;32.34;24.40;98269.19;5090598;28;20111;-83
2021/10/06 06:30:04;;;;;;;6.20;2.97;;;;;;;32.67;24.09;98267.03;5076419;28;20047;-83
2021/10/06 06:32:30;;;;;;;6.10;3.97;;;;;;;32.42;24.62;98251.28;5075760;28;20021;-83
2021/10/06 06:34:56;;;;;;;3.97;2.80;;;;;;;32.63;24.14;98260.72;5080025;28;20081;-83
2021/10/06 06:37:22;;;;;;;4.25;2.83;;;;;;;32.83;24.13;98257.22;5079406;28;20056;-83
2021/10/06 06:39:48;;;;;;;5.95;4.28;;;;;;;32.24;25.33;98265.63;5113639;28;20035;-82
2021/10/06 06:42:15;;;;;;;3.47;2.92;;;;;;;31.94;25.74;98272.47;5085798;28;20020;-82
2021/10/06 06:44:41;;;;;;;6.55;3.63;;;;;;;31.28;26.39;98277.34;5082582;28;20028;-82
2021/10/06 06:47:07;;;;;;;4.68;2.80;;;;;;;30.94;27.31;98281.41;5094012;28;20020;-83
2021/10/06 06:49:33;;;;;;;2.25;1.92;;;;;;;31.03;26.84;98286.25;5095515;28;20174;-83
2021/10/06 06:51:59;;;;;;;3.25;2.28;;;;;;;31.16;26.53;98284.00;5095763;28;20025;-82
2021/10/06 06:54:26;;;;;;;3.55;2.03;;;;;;;31.51;25.60;98290.06;5092172;28;20032;-82
2021/10/06 06:56:52;;;;;;;3.15;2.22;;;;;;;31.71;25.70;98288.22;5075122;28;20055;-83
2021/10/06 06:59:18;;;;;;;4.85;2.42;;;;;;;31.36;25.80;98289.94;5076959;28;20029;-83
2021/10/06 07:01:44;;;;;;;2.97;1.65;;;;;;;31.73;25.31;98299.88;5075285;28;20035;-83
2021/10/06 07:04:10;;;;;;;1.98;1.73;;;;;;;31.69;25.40;98302.13;5091516;28;20074;-83
2021/10/06 07:06:36;;;;;;;2.92;1.83;;;;;;;32.02;25.35;98308.56;5095440;28;20532;-83
2021/10/06 07:09:04;;;;;;;4.07;2.95;;;;;;;31.81;25.04;98315.28;5095364;28;20028;-83
2021/10/06 07:11:31;;;;;;;3.90;2.95;;;;;;;31.70;25.43;98311.41;5095327;28;20024;-82
2021/10/06 07:13:57;;;;;;;5.15;3.10;;;;;;;29.45;28.38;98308.88;5079699;28;20398;-82
2021/10/06 07:16:23;;;;;;;3.40;2.75;;;;;;;29.52;28.96;98310.63;5077063;28;20143;-82
2021/10/06 07:18:50;;;;;;;2.85;1.95;;;;;;;30.86;26.83;98313.34;5074953;28;20100;-83
2021/10/06 07:21:16;;;;;;;9.38;2.95;;;;;;;31.43;26.00;98309.50;5085530;28;20509;-83
2021/10/06 07:23:42;;;;;;;2.92;2.40;;;;;;;31.23;26.38;98314.88;5082034;28;20041;-82
2021/10/06 07:26:08;;;;;;;3.55;2.40;;;;;;;31.10;26.44;98317.91;5074641;28;20086;-82
2021/10/06 07:28:34;;;;;;;4.18;2.92;;;;;;;30.68;27.01;98320.63;5074254;28;20035;-83
2021/10/06 07:31:01;;;;;;;3.28;2.13;;;;;;;31.00;26.60;98315.56;5074643;28;20037;-82
2021/10/06 07:33:27;;;;;;;2.10;1.85;;;;;;;31.74;25.68;98326.22;5089185;28;20038;-82
2021/10/06 07:35:53;;;;;;;2.00;1.63;;;;;;;31.99;25.46;98332.28;5094806;28;20057;-82
2021/10/06 07:38:19;;;;;;;2.40;1.65;;;;;;;32.32;25.23;98334.28;5076636;28;20039;-82
2021/10/06 07:40:45;;;;;;;3.00;1.63;;;;;;;32.82;24.17;98330.41;5074035;28;20028;-82
2021/10/06 07:43:11;;;;;;;2.80;1.90;;;;;;;33.03;24.04;98334.97;5081537;28;20523;-83
2021/10/06 07:45:37;;;;;;;2.95;1.55;;;;;;;33.07;23.74;98331.94;5092249;28;20028;-83
2021/10/06 07:48:04;;;;;;;1.60;1.50;;;;;;;33.21;23.68;98336.84;5077899;28;20506;-83
2021/10/06 07:50:30;;;;;;;2.83;2.58;;;;;;;32.46;24.76;98339.22;5077498;28;20053;-83
2021/10/06 07:52:56;;;;;;;2.38;1.92;;;;;;;32.01;25.62;98348.81;5074225;28;20025;-83
2021/10/06 07:55:23;;;;;;;3.28;2.40;;;;;;;31.85;25.68;98344.31;5073957;28;20485;-83
2021/10/06 07:57:51;;;;;;;4.05;2.50;;;;;;;31.07;26.75;98335.09;5076843;28;20032;-83
2021/10/06 08:00:17;;;;;;;4.28;2.88;;;;;;;30.67;27.67;98335.25;5074125;28;20503;-83
2021/10/06 08:02:43;;;;;;;1.45;1.35;;;;;;;31.27;26.97;98347.50;5074045;28;20370;-83
2021/10/06 08:05:09;;;;;;;2.47;1.83;;;;;;;32.11;25.41;98358.88;5073906;28;20060;-83
2021/10/06 08:07:36;;;;;;;2.65;2.05;;;;;;;32.52;24.88;98357.19;5090059;28;20114;-83
2021/10/06 08:10:04;;;;;;;3.47;2.53;;;;;;;32.55;25.09;98353.38;5094036;28;20435;-83
2021/10/06 08:12:31;;;;;;;3.50;2.55;;;;;;;31.58;26.11;98355.78;5094745;28;20110;-83
2021/10/06 08:14:57;;;;;;;4.80;2.33;;;;;;;31.29;27.20;98355.53;5093946;28;20031;-83
2021/10/06 08:17:23;;;;;;;2.10;1.77;;;;;;;31.63;26.26;98360.81;5079612;28;20040;-83
2021/10/06 08:19:49;;;;;;;1.95;1.73;;;;;;;32.11;25.84;98358.88;5073852;28;20090;-83
2021/10/06 08:22:17;;;;;;;2.65;1.95;;;;;;;32.21;25.54;98354.69;5075926;28;20029;-83
2021/10/06 08:24:43;;;;;;;3.50;1.88;;;;;;;31.92;26.12;98361.00;5092018;28;20032;-83
2021/10/06 08:27:12;;;;;;;3.35;2.08;;;;;;;31.53;26.50;98369.84;5086460;28;20024;-83
2021/10/06 08:29:38;;;;;;;2.22;2.03;;;;;;;31.49;26.67;98361.50;5080000;28;20032;-83
2021/10/06 08:32:05;;;;;;;4.53;3.15;;;;;;;31.10;27.11;98362.50;5084457;28;20370;-83
2021/10/06 08:34:31;;;;;;;5.30;2.13;;;;;;;31.56;26.70;98361.16;5073286;28;20385;-83
2021/10/06 08:36:57;;;;;;;2.47;2.28;;;;;;;31.74;26.47;98360.31;5082560;28;20032;-83
2021/10/06 08:39:23;;;;;;;3.53;2.67;;;;;;;31.75;26.91;98365.50;5072909;28;20092;-83
2021/10/06 08:41:49;;;;;;;2.95;1.77;;;;;;;32.19;26.13;98353.59;5073861;28;20045;-83
2021/10/06 08:44:16;;;;;;;2.35;2.00;;;;;;;32.68;25.54;98359.59;5073318;28;20490;-83
2021/10/06 08:46:43;;;;;;;2.45;1.95;;;;;;;33.10;24.51;98348.81;5088469;28;20036;-83
2021/10/06 08:49:09;;;;;;;3.40;1.90;;;;;;;33.05;24.44;98362.94;5073263;28;20028;-83
2021/10/06 08:51:36;;;;;;;2.25;1.80;;;;;;;33.09;24.83;98358.63;5073007;28;20048;-83
2021/10/06 08:54:02;;;;;;;2.20;2.00;;;;;;;33.40;24.61;98364.59;5073340;28;20044;-82
2021/10/06 08:56:29;;;;;;;2.13;1.58;;;;;;;33.72;23.98;98362.06;5073578;28;20108;-83
2021/10/06 08:58:55;;;;;;;3.03;2.47;;;;;;;33.47;23.98;98368.34;5089606;28;20032;-83
2021/10/06 09:01:27;;;;;;;5.47;2.85;;;;;;;32.79;25.02;98368.38;5073269;28;20493;-83
2021/10/06 09:03:58;;;;;;;4.47;3.25;;;;;;;32.23;26.39;98383.41;5073067;28;20519;-83
2021/10/06 09:06:36;;;;;;;5.47;2.67;;;;;;;32.00;26.73;98373.59;5072953;28;20116;-83
2021/10/06 09:09:17;;;;;;;4.75;3.63;;;;;;;31.81;26.86;98377.75;5092831;28;20067;-83
2021/10/06 09:11:53;;;;;;;6.43;3.33;;;;;;;31.49;27.22;98375.69;5093398;28;20032;-83
2021/10/06 09:14:20;;;;;;;4.55;3.47;;;;;;;31.10;27.99;98376.69;5091780;28;20032;-83
2021/10/06 09:16:47;;;;;;;6.70;3.72;;;;;;;30.67;28.03;98372.91;5092155;28;20028;-83
2021/10/06 09:19:33;;;;;;;3.35;2.97;;;;;;;31.13;27.69;98368.03;5093178;28;20497;-83
2021/10/06 09:21:59;;;;;;;2.30;1.95;;;;;;;31.72;26.89;98374.16;5085965;28;20040;-83
2021/10/06 09:24:46;;;;;;;3.35;2.50;;;;;;;31.92;26.97;98378.03;5092955;28;20036;-83
2021/10/06 09:27:12;;;;;;;3.15;2.53;;;;;;;31.87;26.92;98375.84;5076164;28;20029;-83
2021/10/06 09:29:52;;;;;;;2.45;2.08;;;;;;;31.79;26.76;98379.50;5072923;28;20036;-83
2021/10/06 09:32:30;;;;;;;5.40;4.00;;;;;;;31.34;28.27;98371.94;5074054;28;20116;-83
2021/10/06 09:35:18;;;;;;;3.28;2.22;;;;;;;31.55;27.82;98379.47;5073091;28;20037;-83
2021/10/06 09:37:49;;;;;;;2.47;2.05;;;;;;;32.14;26.97;98377.03;5073723;28;20038;-83
2021/10/06 09:40:19;;;;;;;3.95;1.95;;;;;;;32.23;26.93;98374.88;5084148;28;20059;-83
2021/10/06 09:42:54;;;;;;;4.20;2.55;;;;;;;32.79;26.17;98376.91;5072776;28;20032;-83
2021/10/06 09:45:23;;;;;;;3.00;2.08;;;;;;;32.75;25.84;98374.22;5084591;28;20396;-83
2021/10/06 09:48:09;;;;;;;2.72;2.30;;;;;;;32.27;26.25;98374.72;5080356;28;20659;-83
2021/10/06 09:50:42;;;;;;;3.63;2.28;;;;;;;32.35;26.32;98381.63;5072326;28;20438;-83
2021/10/06 09:53:15;;;;;;;4.03;3.10;;;;;;;32.17;26.76;98378.88;5076148;28;20525;-83
2021/10/06 09:55:45;;;;;;;4.13;2.22;;;;;;;32.62;26.24;98384.28;5076693;28;20032;-83
2021/10/06 09:58:12;;;;;;;5.32;2.53;;;;;;;32.44;26.34;98384.41;5090334;28;20081;-83
2021/10/06 10:00:40;;;;;;;3.20;2.83;;;;;;;31.51;27.36;98386.56;5096745;28;20028;-83
2021/10/06 10:03:07;;;;;;;4.20;3.53;;;;;;;30.89;28.24;98386.97;5095286;28;20392;-83
2021/10/06 10:05:36;;;;;;;2.95;2.35;;;;;;;30.48;28.72;98385.50;5076003;28;20174;-83
2021/10/06 10:08:03;;;;;;;6.43;3.92;;;;;;;30.72;28.70;98383.63;5089145;28;20036;-83
2021/10/06 10:10:34;;;;;;;3.67;2.55;;;;;;;30.95;28.71;98385.06;5095842;28;20488;-83
2021/10/06 10:13:02;;;;;;;3.20;2.63;;;;;;;30.62;29.42;98393.38;5084887;28;20048;-83
2021/10/06 10:15:28;;;;;;;2.90;2.28;;;;;;;31.02;28.57;98390.41;5090213;28;20032;-83
2021/10/06 10:17:56;;;;;;;3.90;2.45;;;;;;;31.16;28.69;98392.59;5074679;28;20478;-83
2021/10/06 10:20:23;;;;;;;4.70;3.35;;;;;;;30.94;28.40;98391.22;5076431;28;20056;-83
2021/10/06 10:22:52;;;;;;;4.07;3.20;;;;;;;31.49;28.01;98394.75;5077318;28;20029;-83
2021/10/06 10:25:26;;;;;;;5.03;3.17;;;;;;;30.94;27.86;98394.03;5075564;28;20037;-83
2021/10/06 10:28:03;;;;;;;3.53;2.15;;;;;;;31.11;28.41;98395.31;5076178;28;20432;-83
2021/10/06 10:30:31;;;;;;;3.85;2.33;;;;;;;31.89;28.18;98390.38;5075871;28;20063;-83
2021/10/06 10:32:58;;;;;;;3.28;2.67;;;;;;;31.98;27.25;98393.19;5075889;28;20067;-82
2021/10/06 10:35:42;;;;;;;2.20;1.98;;;;;;;32.00;26.96;98390.66;5092320;28;20036;-83
2021/10/06 10:38:11;;;;;;;2.65;2.40;;;;;;;32.11;26.68;98390.13;5081412;28;20043;-83
2021/10/06 10:40:42;;;;;;;2.92;2.65;;;;;;;32.59;26.29;98391.75;5077379;28;20119;-83
2021/10/06 10:43:12;;;;;;;10.38;4.85;;;;;;;31.98;26.86;98395.22;5079941;28;20036;-83
2021/10/06 10:45:38;;;;;;;2.50;2.30;;;;;;;31.75;27.15;98387.41;5096209;28;20043;-83
2021/10/06 10:48:06;;;;;;;3.03;2.67;;;;;;;31.44;27.79;98392.59;5094521;28;20040;-83
2021/10/06 10:50:44;;;;;;;3.42;2.70;;;;;;;31.41;28.23;98395.06;5095820;28;20051;-83
2021/10/06 10:53:13;;;;;;;4.78;2.78;;;;;;;31.36;28.38;98395.72;5087469;28;20112;-83
2021/10/06 10:55:54;;;;;;;2.92;2.67;;;;;;;31.05;28.64;98391.50;5075689;28;20089;-83
2021/10/06 10:58:35;;;;;;;4.75;2.97;;;;;;;31.12;28.40;98397.66;5075863;28;20028;-83
2021/10/06 11:01:04;;;;;;;4.72;3.20;;;;;;;31.44;27.84;98398.25;5086990;28;20017;-83
2021/10/06 11:03:31;;;;;;;5.50;2.55;;;;;;;31.74;27.57;98406.50;5074182;28;20506;-83
2021/10/06 11:05:58;;;;;;;5.05;3.45;;;;;;;31.99;27.08;98411.81;5075293;28;20021;-83
2021/10/06 11:08:30;;;;;;;7.30;2.60;;;;;;;32.18;27.20;98409.66;5075619;28;20486;-83
2021/10/06 11:11:12;;;;;;;2.95;2.20;;;;;;;32.52;26.56;98406.31;5092628;28;20431;-82
2021/10/06 11:13:46;;;;;;;6.75;3.35;;;;;;;31.36;28.05;98403.44;5084901;28;20039;-83
2021/10/06 11:16:12;;;;;;;6.60;2.83;;;;;;;31.47;28.10;98402.97;5086196;28;20028;-83
2021/10/06 11:18:50;;;;;;;5.47;3.40;;;;;;;31.14;28.51;98402.84;5095102;28;20089;-83
2021/10/06 11:21:41;;;;;;;3.33;2.55;;;;;;;31.17;29.02;98399.06;5081545;28;20036;-83
2021/10/06 11:24:27;;;;;;;;;;;;;;;31.00;29.06;98398.59;5074931;28;20039;-83
2021/10/06 11:26:58;;;;;;;3.60;2.50;;;;;;;31.38;28.20;98395.25;5074388;28;19923;-83
2021/10/06 11:29:24;;;;;;;;;;;;;;;30.99;28.95;98401.94;5075161;28;20032;-83
2021/10/06 11:31:50;;;;;;;5.00;3.17;;;;;;;31.62;27.66;98393.31;5082809;28;19924;-83
2021/10/06 11:34:19;;;;;;;4.45;2.85;;;;;;;31.04;28.28;98385.03;5074657;28;20028;-83
2021/10/06 11:36:53;;;;;;;2.55;2.35;;;;;;;31.64;27.68;98387.16;5085692;28;20036;-83